Time;durP1;ratioP1;P1;durP2;ratioP2;P2;SDS_P1;SDS_P2;PMS_P1;PMS_P2;Temp;Humidity;BMP_temperature;BMP_pressure;BME280_temperature;BME280_humidity;BME280_pressure;Samples;Min_cycle;Max_cycle;Signal;HPM_P1;HPM_P2
2022/08/01 00:02:10;;;;;;;8.30;4.70;;;;;;;18.56;100.00;100683.06;4893301;29;20120;-88
2022/08/01 00:04:37;;;;;;;4.90;4.40;;;;;;;18.58;100.00;100683.88;4880959;29;20116;-85
2022/08/01 00:07:04;;;;;;;4.18;3.88;;;;;;;18.58;100.00;100686.53;4881690;29;20486;-84
2022/08/01 00:09:31;;;;;;;5.47;4.53;;;;;;;18.56;100.00;100680.44;4890247;29;20051;-86
2022/08/01 00:11:57;;;;;;;6.63;4.55;;;;;;;18.56;100.00;100684.88;4884417;29;20048;-85
2022/08/01 00:14:37;;;;;;;;;;;;;;;;;;;;;
2022/08/01 00:17:04;;;;;;;5.85;4.47;;;;;;;18.44;100.00;100681.81;4881152;29;20484;-85
2022/08/01 00:19:32;;;;;;;7.30;4.57;;;;;;;18.42;100.00;100685.44;4897426;29;20048;-86
2022/08/01 00:21:59;;;;;;;7.60;4.80;;;;;;;18.42;100.00;100682.78;4901444;29;20725;-83
2022/08/01 00:24:26;;;;;;;5.47;4.70;;;;;;;18.45;100.00;100678.22;4900852;29;20041;-87
2022/08/01 00:26:53;;;;;;;4.60;4.20;;;;;;;18.48;100.00;100678.09;4882180;29;20116;-84
2022/08/01 00:29:19;;;;;;;8.95;4.82;;;;;;;18.50;100.00;100684.22;4883211;29;20048;-83
2022/08/01 00:31:46;;;;;;;7.00;5.05;;;;;;;18.50;100.00;100676.25;4878381;29;20056;-85
2022/08/01 00:34:13;;;;;;;4.43;4.05;;;;;;;18.53;100.00;100680.56;4877835;29;20048;-85
2022/08/01 00:36:39;;;;;;;4.50;4.05;;;;;;;18.55;100.00;100683.16;4884308;29;20048;-85
2022/08/01 00:39:07;;;;;;;5.53;4.65;;;;;;;18.54;100.00;100684.06;4872832;29;20068;-84
2022/08/01 00:41:38;;;;;;;7.82;5.07;;;;;;;18.53;100.00;100680.56;4899142;29;20040;-83
2022/08/01 00:44:11;;;;;;;5.90;4.40;;;;;;;18.60;100.00;100673.22;4898710;29;20044;-83
2022/08/01 00:46:43;;;;;;;5.88;4.43;;;;;;;18.58;100.00;100677.75;4881600;29;20044;-82
2022/08/01 00:49:14;;;;;;;5.43;4.40;;;;;;;18.57;100.00;100671.56;4882211;29;20056;-85
2022/08/01 00:51:41;;;;;;;4.53;4.13;;;;;;;18.60;100.00;100681.16;4891768;29;20132;-85
2022/08/01 00:54:08;;;;;;;4.55;4.13;;;;;;;18.62;100.00;100680.19;4885974;29;20412;-84
2022/08/01 00:56:35;;;;;;;6.03;4.47;;;;;;;18.61;100.00;100670.50;4881614;29;20051;-84
2022/08/01 00:59:10;;;;;;;7.13;4.50;;;;;;;18.59;100.00;100677.66;4897789;29;20055;-84
2022/08/01 01:01:42;;;;;;;4.60;3.97;;;;;;;18.59;100.00;100666.19;4868247;29;20057;-83
2022/08/01 01:04:08;;;;;;;5.20;4.28;;;;;;;18.60;100.00;100666.09;4895148;29;20072;-83
2022/08/01 01:06:58;;;;;;;6.10;4.55;;;;;;;18.59;100.00;100669.72;4878763;29;20037;-85
2022/08/01 01:09:40;;;;;;;6.03;4.68;;;;;;;18.63;100.00;100663.34;4862762;29;20116;-84
2022/08/01 01:12:39;;;;;;;5.65;5.15;;;;;;;18.65;100.00;100671.22;4874868;29;20072;-83
2022/08/01 01:15:11;;;;;;;4.93;4.53;;;;;;;18.62;100.00;100669.56;4875270;29;20044;-84
2022/08/01 01:18:04;;;;;;;5.28;4.78;;;;;;;18.62;100.00;100668.72;4896656;29;20072;-83
2022/08/01 01:20:38;;;;;;;7.97;5.30;;;;;;;18.64;100.00;100666.84;4903145;29;20070;-85
2022/08/01 01:23:39;;;;;;;5.70;5.10;;;;;;;18.66;100.00;100663.19;4876539;29;20423;-86
2022/08/01 01:26:48;;;;;;;5.47;4.53;;;;;;;18.67;100.00;100661.44;4888863;29;20641;-83
2022/08/01 01:29:33;;;;;;;4.47;4.07;;;;;;;18.66;100.00;100672.97;4855226;29;20057;-86
2022/08/01 01:32:11;;;;;;;4.90;4.13;;;;;;;18.68;100.00;100673.75;4876594;29;20040;-86
2022/08/01 01:34:43;;;;;;;5.22;4.57;;;;;;;18.66;100.00;100670.31;4880160;29;20052;-86
2022/08/01 01:37:18;;;;;;;5.53;3.90;;;;;;;18.64;100.00;100683.63;4854329;29;20069;-85
2022/08/01 01:39:49;;;;;;;6.50;4.88;;;;;;;18.63;100.00;100673.06;4864508;29;20045;-85
2022/08/01 01:42:18;;;;;;;5.63;3.97;;;;;;;18.62;100.00;100680.19;4884299;29;20075;-86
2022/08/01 01:44:51;;;;;;;4.55;4.03;;;;;;;18.63;100.00;100675.72;4898646;29;20036;-89
2022/08/01 01:47:28;;;;;;;5.50;5.03;;;;;;;18.60;100.00;100682.00;4876784;29;20067;-88
2022/08/01 01:50:07;;;;;;;7.07;4.38;;;;;;;18.54;100.00;100678.75;4895086;29;20299;-84
2022/08/01 01:52:35;;;;;;;5.85;4.18;;;;;;;18.47;100.00;100681.69;4887531;29;20513;-84
2022/08/01 01:55:12;;;;;;;5.85;4.57;;;;;;;18.45;100.00;100690.63;4904757;29;20040;-83
2022/08/01 01:57:44;;;;;;;7.43;4.90;;;;;;;18.41;100.00;100691.66;4896705;29;20067;-83
2022/08/01 02:00:18;;;;;;;5.75;5.10;;;;;;;18.40;100.00;100687.31;4884542;29;20076;-83
2022/08/01 02:02:47;;;;;;;4.15;3.85;;;;;;;18.39;100.00;100690.88;4877573;29;20048;-84
2022/08/01 02:05:14;;;;;;;5.57;4.47;;;;;;;18.39;100.00;100690.88;4861596;29;20420;-86
2022/08/01 02:07:52;;;;;;;4.10;3.63;;;;;;;18.36;100.00;100689.22;4875369;29;20072;-84
2022/08/01 02:10:19;;;;;;;4.30;3.90;;;;;;;18.35;100.00;100687.47;4881461;29;20044;-84
2022/08/01 02:12:49;;;;;;;5.65;3.22;;;;;;;18.37;100.00;100684.75;4860715;29;20764;-85
2022/08/01 02:15:18;;;;;;;4.10;3.45;;;;;;;18.37;100.00;100679.47;4872607;29;20054;-84
2022/08/01 02:17:50;;;;;;;5.07;2.78;;;;;;;18.37;100.00;100682.13;4879509;29;20556;-84
2022/08/01 02:20:17;;;;;;;3.53;3.25;;;;;;;18.34;100.00;100691.06;4887321;29;20454;-83
2022/08/01 02:23:01;;;;;;;3.78;3.25;;;;;;;18.33;100.00;100690.19;4878525;29;20072;-83
2022/08/01 02:25:50;;;;;;;3.53;2.97;;;;;;;18.31;100.00;100689.38;4871448;29;20059;-85
2022/08/01 02:28:30;;;;;;;4.47;2.95;;;;;;;18.28;100.00;100696.63;4872690;29;20143;-84
2022/08/01 02:31:07;;;;;;;2.75;2.55;;;;;;;18.26;100.00;100693.16;4874291;29;20045;-90
2022/08/01 02:33:44;;;;;;;3.63;2.17;;;;;;;18.21;100.00;100688.03;4866953;29;20041;-84
2022/08/01 02:36:13;;;;;;;2.35;2.22;;;;;;;18.22;100.00;100692.41;4875796;29;20158;-87
2022/08/01 02:38:44;;;;;;;2.90;2.70;;;;;;;18.23;100.00;100699.44;4861480;29;20060;-88
2022/08/01 02:41:18;;;;;;;3.05;2.50;;;;;;;18.25;100.00;100692.31;4896068;29;20060;-84
2022/08/01 02:43:51;;;;;;;3.75;2.50;;;;;;;18.25;100.00;100699.38;4889005;29;20167;-84
2022/08/01 02:46:24;;;;;;;2.80;2.60;;;;;;;18.25;100.00;100705.56;4886532;29;20059;-86
2022/08/01 02:48:54;;;;;;;4.03;2.90;;;;;;;18.23;100.00;100701.25;4890340;29;20048;-84
2022/08/01 02:51:24;;;;;;;3.50;3.20;;;;;;;18.22;100.00;100697.72;4873456;29;20496;-83
2022/08/01 02:53:53;;;;;;;2.90;2.33;;;;;;;18.19;100.00;100698.69;4884094;29;20041;-83
2022/08/01 02:56:21;;;;;;;2.25;2.15;;;;;;;18.19;100.00;100700.50;4891664;29;20048;-84
2022/08/01 02:58:49;;;;;;;3.78;3.13;;;;;;;18.19;100.00;100711.09;4891756;29;20072;-86
2022/08/01 03:01:19;;;;;;;2.80;2.53;;;;;;;18.18;100.00;100709.38;4878744;29;20049;-85
2022/08/01 03:03:48;;;;;;;2.80;2.60;;;;;;;18.19;100.00;100708.44;4898094;29;20520;-84
2022/08/01 03:06:23;;;;;;;3.17;2.88;;;;;;;18.21;100.00;100713.69;4897943;29;20127;-86
2022/08/01 03:08:54;;;;;;;2.78;2.55;;;;;;;18.19;100.00;100709.28;4882466;29;20561;-84
2022/08/01 03:11:22;;;;;;;2.35;2.25;;;;;;;18.19;100.00;100711.94;4890108;29;20535;-85
2022/08/01 03:13:49;;;;;;;2.28;2.17;;;;;;;18.18;100.00;100712.88;4885104;29;20040;-84
2022/08/01 03:16:21;;;;;;;2.33;2.13;;;;;;;18.17;100.00;100719.13;4881294;29;20044;-84
2022/08/01 03:18:49;;;;;;;3.35;1.90;;;;;;;18.18;100.00;100710.22;4873677;29;20100;-89
2022/08/01 03:21:17;;;;;;;1.98;1.88;;;;;;;18.18;100.00;100717.31;4865064;29;20048;-85
2022/08/01 03:23:48;;;;;;;1.33;1.25;;;;;;;18.13;100.00;100720.16;4872884;29;20576;-84
2022/08/01 03:26:15;;;;;;;1.60;1.55;;;;;;;18.08;100.00;100718.59;4854041;29;20120;-84
2022/08/01 03:28:47;;;;;;;2.90;1.80;;;;;;;18.07;100.00;100725.69;4876122;29;20049;-85
2022/08/01 03:31:18;;;;;;;2.03;1.58;;;;;;;18.06;100.00;100729.25;4893786;29;20049;-85
2022/08/01 03:33:44;;;;;;;1.67;1.58;;;;;;;18.05;100.00;100730.19;4880762;29;20045;-85
2022/08/01 03:36:13;;;;;;;1.70;1.60;;;;;;;18.03;100.00;100740.00;4892348;29;20071;-86
2022/08/01 03:38:43;;;;;;;2.03;1.58;;;;;;;17.96;100.00;100739.34;4881865;29;20052;-86
2022/08/01 03:41:14;;;;;;;1.10;1.10;;;;;;;17.84;100.00;100740.63;4897526;29;20044;-91
2022/08/01 03:43:53;;;;;;;1.23;1.23;;;;;;;17.76;100.00;100758.59;4902999;29;20051;-84
2022/08/01 03:47:00;;;;;;;1.20;1.20;;;;;;;17.68;100.00;100747.44;4888786;29;20048;-88
2022/08/01 03:49:38;;;;;;;1.98;1.77;;;;;;;17.62;100.00;100748.50;4854036;29;20590;-84
2022/08/01 03:52:10;;;;;;;1.83;1.73;;;;;;;17.55;100.00;100749.69;4882182;29;20040;-84
2022/08/01 03:54:42;;;;;;;1.70;1.60;;;;;;;17.50;100.00;100741.88;4866810;29;20044;-84
2022/08/01 03:57:16;;;;;;;2.17;1.75;;;;;;;17.48;100.00;100742.88;4866239;29;20049;-84
2022/08/01 03:59:46;;;;;;;1.95;1.52;;;;;;;17.48;100.00;100750.81;4859838;29;20116;-85
2022/08/01 04:02:15;;;;;;;3.00;1.77;;;;;;;17.45;100.00;100756.22;4867910;29;20056;-84
2022/08/01 04:04:42;;;;;;;2.25;2.13;;;;;;;17.46;100.00;100753.50;4856746;29;20049;-84
2022/08/01 04:07:30;;;;;;;1.77;1.67;;;;;;;17.50;100.00;100756.91;4850756;29;20045;-85
2022/08/01 04:09:57;;;;;;;1.88;1.77;;;;;;;17.50;100.00;100759.56;4854042;29;20133;-88
2022/08/01 04:12:32;;;;;;;2.28;2.08;;;;;;;17.50;100.00;100756.91;4863737;29;21382;-85
2022/08/01 04:15:09;;;;;;;3.45;3.15;;;;;;;17.52;100.00;100760.34;4871459;29;20040;-85
2022/08/01 04:17:35;;;;;;;5.78;2.67;;;;;;;17.53;100.00;100768.28;4850389;29;20049;-84
2022/08/01 04:20:02;;;;;;;4.13;3.63;;;;;;;17.55;100.00;100767.31;4864215;29;20041;-85
2022/08/01 04:22:33;;;;;;;6.38;4.50;;;;;;;17.57;100.00;100774.28;4862646;29;20078;-85
2022/08/01 04:25:05;;;;;;;7.03;5.45;;;;;;;17.59;100.00;100771.63;4848469;29;20102;-85
2022/08/01 04:27:38;;;;;;;5.47;4.97;;;;;;;17.61;100.00;100767.09;4866135;29;20510;-85
2022/08/01 04:30:07;;;;;;;7.70;5.95;;;;;;;17.65;100.00;100772.25;4855812;29;20416;-85
2022/08/01 04:32:39;;;;;;;7.55;5.75;;;;;;;17.67;100.00;100783.63;4867991;29;20076;-86
2022/08/01 04:35:10;;;;;;;6.53;5.40;;;;;;;17.69;100.00;100779.16;4885861;29;20081;-86
2022/08/01 04:37:38;;;;;;;5.90;4.90;;;;;;;17.73;100.00;100781.69;4859636;29;20127;-85
2022/08/01 04:40:07;;;;;;;5.78;5.20;;;;;;;17.74;100.00;100788.72;4876467;29;20132;-84
2022/08/01 04:42:37;;;;;;;6.97;5.63;;;;;;;17.75;100.00;100791.28;4860666;29;20048;-85
2022/08/01 04:45:09;;;;;;;7.38;5.68;;;;;;;17.75;100.00;100787.78;4861963;29;20048;-85
2022/08/01 04:47:38;;;;;;;6.10;5.55;;;;;;;17.74;100.00;100792.22;4860522;29;20382;-87
2022/08/01 04:50:10;;;;;;;7.90;6.05;;;;;;;17.77;100.00;100793.88;4859568;29;20081;-86
2022/08/01 04:52:47;;;;;;;6.13;5.53;;;;;;;17.80;100.00;100799.06;4866324;29;20412;-85
2022/08/01 04:55:14;;;;;;;6.15;5.32;;;;;;;17.82;100.00;100795.44;4878816;29;20049;-84
2022/08/01 04:57:46;;;;;;;6.35;5.85;;;;;;;17.86;100.00;100806.81;4864494;29;20060;-82
2022/08/01 05:00:23;;;;;;;6.28;5.68;;;;;;;17.90;100.00;100805.75;4895103;29;20111;-84
2022/08/01 05:02:50;;;;;;;5.47;4.97;;;;;;;17.94;100.00;100803.88;4890171;29;20044;-86
2022/08/01 05:05:17;;;;;;;5.50;4.25;;;;;;;17.98;100.00;100801.06;4882023;29;20048;-83
2022/08/01 05:07:54;;;;;;;5.00;4.32;;;;;;;18.08;100.00;100806.91;4881335;29;20072;-86
2022/08/01 05:10:22;;;;;;;5.90;4.55;;;;;;;18.18;100.00;100808.25;4884518;29;20119;-85
2022/08/01 05:12:48;;;;;;;3.88;3.58;;;;;;;18.26;100.00;100807.94;4878669;29;20136;-84
2022/08/01 05:15:16;;;;;;;4.07;3.58;;;;;;;18.30;100.00;100806.06;4891571;29;20049;-84
2022/08/01 05:17:42;;;;;;;3.50;3.20;;;;;;;18.31;100.00;100823.69;4894149;29;20477;-85
2022/08/01 05:20:11;;;;;;;4.00;3.35;;;;;;;18.32;100.00;100822.78;4865936;29;20048;-84
2022/08/01 05:22:38;;;;;;;4.95;4.00;;;;;;;18.36;100.00;100824.38;4878911;29;20048;-84
2022/08/01 05:25:06;;;;;;;7.00;5.18;;;;;;;18.45;100.00;100829.31;4869449;29;20089;-89
2022/08/01 05:27:38;;;;;;;3.05;2.85;;;;;;;18.55;100.00;100823.66;4883631;29;20049;-84
2022/08/01 05:30:05;;;;;;;2.25;2.15;;;;;;;18.61;100.00;100823.41;4890301;29;20092;-88
2022/08/01 05:32:32;;;;;;;2.88;2.42;;;;;;;18.63;100.00;100824.19;4876737;29;20043;-86
2022/08/01 05:34:59;;;;;;;2.63;2.42;;;;;;;18.66;100.00;100824.09;4867540;29;20576;-85
2022/08/01 05:37:26;;;;;;;3.75;3.22;;;;;;;18.66;100.00;100818.78;4881718;29;20076;-89
2022/08/01 05:39:53;;;;;;;3.20;2.90;;;;;;;18.65;100.00;100827.66;4891441;29;20052;-83
2022/08/01 05:42:21;;;;;;;3.13;2.65;;;;;;;18.63;100.00;100825.09;4890903;29;20055;-84
2022/08/01 05:44:50;;;;;;;2.35;2.25;;;;;;;18.67;100.00;100828.47;4889903;29;20048;-85
2022/08/01 05:47:21;;;;;;;1.60;1.50;;;;;;;18.71;100.00;100829.19;4882058;29;20052;-86
2022/08/01 05:49:48;;;;;;;2.60;2.40;;;;;;;18.74;100.00;100823.78;4858936;29;20080;-85
2022/08/01 05:52:18;;;;;;;3.05;2.65;;;;;;;18.80;100.00;100827.06;4878455;29;20508;-85
2022/08/01 05:54:45;;;;;;;2.00;1.90;;;;;;;18.88;100.00;100821.44;4885335;29;20112;-88
2022/08/01 05:57:11;;;;;;;2.42;2.28;;;;;;;18.97;100.00;100830.84;4876476;29;20096;-86
2022/08/01 05:59:38;;;;;;;4.97;3.33;;;;;;;19.05;100.00;100822.56;4867057;29;20160;-85
2022/08/01 06:02:05;;;;;;;3.97;2.47;;;;;;;19.12;100.00;100829.34;4881935;29;20045;-86
2022/08/01 06:04:39;;;;;;;2.90;2.70;;;;;;;19.16;100.00;100830.94;4874220;29;20064;-86
2022/08/01 06:07:10;;;;;;;2.33;2.15;;;;;;;19.30;100.00;100836.50;4866580;29;20056;-85
2022/08/01 06:09:37;;;;;;;2.80;2.70;;;;;;;19.36;100.00;100834.53;4876923;29;20048;-86
2022/08/01 06:12:05;;;;;;;3.33;2.67;;;;;;;19.40;100.00;100844.97;4878150;29;20057;-89
2022/08/01 06:14:31;;;;;;;3.42;3.17;;;;;;;19.44;100.00;100838.56;4860240;29;20483;-86
2022/08/01 06:16:59;;;;;;;2.80;2.63;;;;;;;19.42;100.00;100834.25;4863259;29;20041;-86
2022/08/01 06:19:26;;;;;;;3.08;2.88;;;;;;;19.38;100.00;100852.09;4859117;29;20053;-87
2022/08/01 06:21:53;;;;;;;3.10;2.90;;;;;;;19.36;100.00;100856.63;4876743;29;20484;-86
2022/08/01 06:24:19;;;;;;;2.70;2.50;;;;;;;19.43;100.00;100851.94;4875144;29;20045;-87
2022/08/01 06:26:48;;;;;;;3.35;3.15;;;;;;;19.45;100.00;100855.34;4873862;29;20041;-89
2022/08/01 06:29:14;;;;;;;2.80;2.65;;;;;;;19.43;100.00;100858.09;4863821;29;20515;-86
2022/08/01 06:31:41;;;;;;;3.00;2.80;;;;;;;19.40;100.00;100870.63;4878641;29;20040;-84
2022/08/01 06:34:11;;;;;;;2.42;2.33;;;;;;;19.28;100.00;100869.34;4866508;29;20144;-87
2022/08/01 06:36:38;;;;;;;2.97;1.40;;;;;;;19.08;100.00;100879.00;4873623;29;20045;-83
2022/08/01 06:39:05;;;;;;;1.80;1.70;;;;;;;18.93;100.00;100877.84;4888423;29;20037;-86
2022/08/01 06:44:14;;;;;;;1.50;1.10;;;;;;;18.89;100.00;100886.88;4883992;29;20040;-86
2022/08/01 06:46:41;;;;;;;2.35;1.60;;;;;;;18.95;100.00;100883.94;4875391;29;20052;-84
2022/08/01 06:49:08;;;;;;;1.75;1.48;;;;;;;19.07;100.00;100881.72;4893889;29;20051;-83
2022/08/01 06:51:34;;;;;;;1.92;1.83;;;;;;;19.22;100.00;100878.44;4894033;29;20052;-84
2022/08/01 06:54:01;;;;;;;2.15;2.05;;;;;;;19.41;100.00;100881.19;4895651;29;20057;-86
2022/08/01 06:56:27;;;;;;;3.63;2.25;;;;;;;19.59;100.00;100878.66;4872930;29;20043;-85
2022/08/01 06:58:58;;;;;;;1.85;1.85;;;;;;;19.76;100.00;100877.94;4897014;29;20048;-85
2022/08/01 07:01:25;;;;;;;2.08;1.98;;;;;;;19.94;100.00;100878.97;4897688;29;20057;-84
2022/08/01 07:03:53;;;;;;;2.08;1.83;;;;;;;20.05;100.00;100871.38;4877011;29;20041;-88
2022/08/01 07:06:19;;;;;;;1.90;1.80;;;;;;;20.15;99.94;100880.66;4887021;29;20072;-85
2022/08/01 07:08:46;;;;;;;1.83;1.73;;;;;;;20.23;99.70;100871.47;4883863;29;20158;-85
2022/08/01 07:11:17;;;;;;;1.23;1.23;;;;;;;20.39;98.47;100879.56;4881266;29;20123;-83
2022/08/01 07:13:46;;;;;;;1.88;1.77;;;;;;;20.60;97.06;100873.25;4891053;29;20453;-85
2022/08/01 07:16:16;;;;;;;1.67;1.58;;;;;;;20.79;96.39;100877.72;4897001;29;20051;-86
2022/08/01 07:18:43;;;;;;;1.15;1.13;;;;;;;20.87;95.59;100872.91;4870240;29;20057;-87
2022/08/01 07:21:10;;;;;;;1.80;1.70;;;;;;;21.02;94.11;100889.06;4881198;29;20047;-85
2022/08/01 07:23:36;;;;;;;5.57;1.48;;;;;;;21.12;92.87;100891.19;4890367;29;20050;-85
2022/08/01 07:26:06;;;;;;;1.50;1.50;;;;;;;21.27;91.48;100889.56;4888786;29;20039;-89
2022/08/01 07:28:32;;;;;;;1.35;1.35;;;;;;;21.39;89.86;100889.88;4916685;29;20059;-88
2022/08/01 07:30:59;;;;;;;1.80;1.70;;;;;;;21.43;88.79;100878.13;4894056;29;20075;-87
2022/08/01 07:33:26;;;;;;;1.65;1.25;;;;;;;21.36;88.67;100890.06;4894895;29;20168;-84
2022/08/01 07:35:52;;;;;;;2.88;1.58;;;;;;;21.27;89.31;100892.22;4904523;29;20074;-85
2022/08/01 07:38:19;;;;;;;1.20;1.10;;;;;;;21.12;88.92;100896.50;4886914;29;20063;-85
2022/08/01 07:40:46;;;;;;;1.27;1.27;;;;;;;21.03;89.52;100904.06;4897729;29;20082;-85
2022/08/01 07:43:13;;;;;;;1.92;1.42;;;;;;;21.05;89.61;100905.72;4874949;29;20056;-85
2022/08/01 07:45:42;;;;;;;0.80;0.80;;;;;;;21.19;89.36;100898.88;4890164;29;20080;-84
2022/08/01 07:48:09;;;;;;;2.75;1.05;;;;;;;21.34;88.59;100905.22;4875127;29;20059;-83
2022/08/01 07:50:36;;;;;;;1.00;1.00;;;;;;;21.46;87.42;100907.28;4887614;29;20448;-84
2022/08/01 07:53:04;;;;;;;4.72;1.65;;;;;;;21.59;86.57;100912.84;4905558;29;20567;-84
2022/08/01 07:55:31;;;;;;;3.22;1.20;;;;;;;21.73;84.44;100910.38;4895663;29;20044;-86
2022/08/01 07:57:57;;;;;;;1.98;1.55;;;;;;;21.72;83.48;100907.75;4889077;29;20047;-85
2022/08/01 08:00:24;;;;;;;1.38;1.27;;;;;;;21.61;83.48;100914.50;4885060;29;20045;-87
2022/08/01 08:02:51;;;;;;;0.90;0.90;;;;;;;21.36;84.62;100922.84;4879531;29;20701;-86
2022/08/01 08:05:17;;;;;;;3.70;1.23;;;;;;;21.04;86.84;100922.66;4902624;29;20049;-87
2022/08/01 08:07:44;;;;;;;1.85;1.58;;;;;;;20.71;88.24;100931.28;4899009;29;20496;-86
2022/08/01 08:10:11;;;;;;;1.55;1.45;;;;;;;20.50;90.06;100933.13;4877713;29;20468;-84
2022/08/01 08:12:38;;;;;;;3.00;2.78;;;;;;;20.40;89.96;100929.16;4891277;29;20461;-86
2022/08/01 08:15:07;;;;;;;3.35;3.15;;;;;;;20.33;90.11;100942.72;4883148;29;20057;-86
2022/08/01 08:17:35;;;;;;;3.78;2.80;;;;;;;20.27;90.50;100939.50;4869988;29;20060;-85
2022/08/01 08:20:04;;;;;;;3.15;2.95;;;;;;;20.29;89.14;100938.50;4866646;29;20051;-85
2022/08/01 08:22:31;;;;;;;3.10;2.72;;;;;;;20.39;88.91;100940.72;4863880;29;20112;-86
2022/08/01 08:24:58;;;;;;;3.28;3.05;;;;;;;20.60;87.88;100942.41;4880867;29;20060;-86
2022/08/01 08:27:25;;;;;;;2.83;2.30;;;;;;;20.89;85.68;100942.03;4897995;29;20059;-85
2022/08/01 08:29:52;;;;;;;2.95;2.50;;;;;;;21.34;83.25;100940.72;4906498;29;20049;-88
2022/08/01 08:32:24;;;;;;;2.78;2.67;;;;;;;21.82;79.88;100941.00;4867669;29;20048;-87
2022/08/01 08:34:52;;;;;;;2.85;2.65;;;;;;;22.30;77.62;100943.81;4866397;29;20056;-87
2022/08/01 08:37:23;;;;;;;2.10;1.90;;;;;;;22.68;75.58;100943.56;4882168;29;20484;-82
2022/08/01 08:39:53;;;;;;;1.80;1.70;;;;;;;22.92;72.90;100949.38;4891263;29;20040;-83
2022/08/01 08:42:24;;;;;;;2.00;1.42;;;;;;;23.04;71.11;100957.63;4883079;29;20049;-86
2022/08/01 08:44:54;;;;;;;1.85;1.20;;;;;;;22.92;70.51;100962.72;4893402;29;20048;-85
2022/08/01 08:47:25;;;;;;;1.40;1.02;;;;;;;22.71;71.52;100958.56;4880607;29;20063;-84
2022/08/01 08:49:56;;;;;;;0.60;0.60;;;;;;;22.69;71.33;100963.13;4883343;29;20048;-85
2022/08/01 08:52:24;;;;;;;1.40;1.30;;;;;;;22.83;70.95;100960.56;4884452;29;20222;-90
2022/08/01 08:54:55;;;;;;;1.38;1.23;;;;;;;22.91;69.83;100965.47;4893907;29;20056;-86
2022/08/01 08:57:23;;;;;;;1.45;1.15;;;;;;;22.73;70.79;100968.19;4868808;29;20077;-85
2022/08/01 08:59:53;;;;;;;0.98;0.98;;;;;;;22.57;71.33;100970.84;4868444;29;20052;-86
2022/08/01 09:02:24;;;;;;;2.60;1.55;;;;;;;22.39;72.14;100969.19;4899185;29;20055;-84
2022/08/01 09:04:52;;;;;;;2.30;0.73;;;;;;;22.32;72.48;100971.28;4870860;29;20048;-87
2022/08/01 09:07:19;;;;;;;3.15;0.73;;;;;;;22.37;72.47;100977.28;4897569;29;20566;-85
2022/08/01 09:09:48;;;;;;;1.20;0.57;;;;;;;22.52;71.19;100972.06;4883555;29;20134;-85
2022/08/01 09:12:19;;;;;;;0.80;0.70;;;;;;;22.78;69.78;100974.16;4868551;29;20055;-85
2022/08/01 09:14:49;;;;;;;1.75;0.50;;;;;;;23.02;67.88;100979.06;4893633;29;20107;-85
2022/08/01 09:17:19;;;;;;;;;;;;;;;23.05;67.66;100991.38;4885080;29;20448;-87
2022/08/01 09:19:56;;;;;;;0.75;0.50;;;;;;;23.00;67.51;100993.44;4896877;29;19924;-87
2022/08/01 09:22:27;;;;;;;1.25;0.50;;;;;;;22.88;68.69;100995.88;4899577;29;20052;-90
2022/08/01 09:25:11;;;;;;;2.03;0.70;;;;;;;22.95;67.37;100989.22;4913118;29;20064;-90
2022/08/01 09:27:39;;;;;;;1.58;0.93;;;;;;;22.98;67.82;101000.69;4873778;29;20055;-86
2022/08/01 09:30:15;;;;;;;0.80;0.50;;;;;;;22.96;68.01;101006.97;4862525;29;20055;-87
2022/08/01 09:32:57;;;;;;;0.80;0.73;;;;;;;22.92;67.15;101007.25;4886242;29;20467;-85
2022/08/01 09:35:34;;;;;;;1.92;0.50;;;;;;;22.63;68.41;101002.53;4894203;29;20052;-85
2022/08/01 09:38:15;;;;;;;0.93;0.55;;;;;;;22.22;69.38;101010.91;4896833;29;20040;-87
2022/08/01 09:41:00;;;;;;;3.17;0.60;;;;;;;21.84;71.51;101015.53;4879838;29;20480;-85
2022/08/01 09:43:29;;;;;;;1.02;0.70;;;;;;;21.53;72.91;101022.38;4865344;29;20068;-85
2022/08/01 09:46:08;;;;;;;2.17;1.48;;;;;;;21.35;73.62;101026.78;4878397;29;20040;-86
2022/08/01 09:48:36;;;;;;;2.40;2.15;;;;;;;21.17;72.93;101023.19;4893705;29;20047;-86
2022/08/01 09:51:10;;;;;;;2.90;2.22;;;;;;;21.04;73.67;101026.47;4880675;29;20100;-86
2022/08/01 09:53:59;;;;;;;1.90;1.80;;;;;;;21.26;72.16;101023.66;4872980;29;20057;-85
2022/08/01 09:56:46;;;;;;;2.97;2.17;;;;;;;21.58;71.03;101036.38;4862129;29;20044;-87
2022/08/01 09:59:14;;;;;;;2.50;2.30;;;;;;;21.87;69.79;101036.72;4860755;29;20132;-87
2022/08/01 10:01:50;;;;;;;2.30;2.10;;;;;;;22.07;67.81;101039.22;4847989;29;20041;-88
2022/08/01 10:04:32;;;;;;;3.42;3.10;;;;;;;21.96;68.10;101042.41;4858421;29;20047;-85
2022/08/01 10:07:08;;;;;;;3.78;2.38;;;;;;;21.76;68.72;101043.44;4867769;29;20124;-85
2022/08/01 10:09:37;;;;;;;2.53;2.42;;;;;;;21.71;68.96;101048.13;4855267;29;20045;-85
2022/08/01 10:12:08;;;;;;;3.08;2.88;;;;;;;21.75;69.53;101052.38;4864222;29;20395;-89
2022/08/01 10:14:35;;;;;;;2.53;2.33;;;;;;;21.95;68.62;101046.06;4855502;29;20085;-84
2022/08/01 10:17:03;;;;;;;1.70;1.60;;;;;;;22.19;67.30;101047.53;4871827;29;20045;-86
2022/08/01 10:19:32;;;;;;;1.75;1.65;;;;;;;22.38;66.46;101040.31;4855920;29;20048;-84
2022/08/01 10:22:00;;;;;;;1.60;1.50;;;;;;;22.61;64.65;101038.25;4880278;29;20283;-84
2022/08/01 10:24:29;;;;;;;2.17;1.20;;;;;;;22.74;64.43;101041.97;4872951;29;20056;-82
2022/08/01 10:27:05;;;;;;;4.22;1.90;;;;;;;22.97;63.79;101039.84;4874189;29;20566;-84
2022/08/01 10:29:38;;;;;;;2.65;2.08;;;;;;;23.19;63.19;101039.56;4850853;29;20056;-85
2022/08/01 10:32:08;;;;;;;2.22;2.10;;;;;;;23.50;62.51;101039.66;4865129;29;20409;-84
2022/08/01 10:34:38;;;;;;;2.83;2.58;;;;;;;23.71;61.63;101046.41;4870161;29;20089;-82
2022/08/01 10:37:06;;;;;;;2.40;1.83;;;;;;;23.64;62.11;101045.06;4865584;29;20118;-88
2022/08/01 10:39:34;;;;;;;3.72;2.13;;;;;;;23.68;62.65;101040.41;4854468;29;20135;-84
2022/08/01 10:42:02;;;;;;;2.15;1.35;;;;;;;23.66;62.72;101047.63;4863533;29;20139;-85
2022/08/01 10:44:31;;;;;;;3.55;2.05;;;;;;;23.64;62.60;101054.91;4874866;29;20044;-85
2022/08/01 10:47:12;;;;;;;2.45;1.98;;;;;;;23.84;60.07;101045.72;4872080;29;20052;-84
2022/08/01 10:50:00;;;;;;;2.40;1.48;;;;;;;24.20;58.84;101044.53;4861423;29;20434;-85
2022/08/01 10:52:27;;;;;;;2.53;1.60;;;;;;;24.60;58.04;101042.06;4856966;29;20140;-87
2022/08/01 10:55:12;;;;;;;2.70;1.73;;;;;;;24.69;55.91;101038.00;4886826;29;20112;-86
2022/08/01 10:57:48;;;;;;;2.05;1.60;;;;;;;24.47;56.84;101043.78;4877778;29;20048;-84
2022/08/01 11:00:20;;;;;;;2.85;1.33;;;;;;;24.18;58.23;101038.38;4872612;29;20187;-84
2022/08/01 11:03:03;;;;;;;;;;;;;;;23.64;59.20;101053.06;4896762;29;20598;-85
2022/08/01 11:05:43;;;;;;;2.22;1.20;;;;;;;23.29;60.93;101050.59;4878463;29;19934;-84
2022/08/01 11:08:23;;;;;;;4.00;1.50;;;;;;;23.34;61.05;101042.34;4876226;29;20048;-85
2022/08/01 11:11:04;;;;;;;2.47;1.30;;;;;;;23.68;60.50;101041.25;4870339;29;20136;-85
2022/08/01 11:14:00;;;;;;;1.83;1.27;;;;;;;25.10;55.29;101039.88;4887277;29;20048;-85
2022/08/01 11:16:32;;;;;;;3.08;1.15;;;;;;;26.42;52.66;101034.72;4897433;29;20045;-82
2022/08/01 11:18:59;;;;;;;1.67;1.00;;;;;;;28.30;47.33;101035.38;4884060;29;20068;-85
2022/08/01 11:21:54;;;;;;;3.03;1.10;;;;;;;30.35;43.16;101042.03;4890297;29;20081;-83
2022/08/01 11:24:51;;;;;;;2.45;1.23;;;;;;;31.70;39.29;101040.97;4881154;29;20127;-85
2022/08/01 11:27:28;;;;;;;2.05;1.23;;;;;;;32.33;37.96;101049.44;4898767;29;20071;-85
2022/08/01 11:30:10;;;;;;;1.65;1.00;;;;;;;33.19;36.10;101054.81;4879917;29;20056;-85
2022/08/01 11:32:57;;;;;;;3.72;1.20;;;;;;;33.50;35.17;101049.06;4896733;29;20096;-84
2022/08/01 11:35:26;;;;;;;2.53;1.30;;;;;;;32.82;35.71;101056.56;4888839;29;20045;-85
2022/08/01 11:37:56;;;;;;;1.30;1.20;;;;;;;32.35;36.93;101051.16;4876682;29;20044;-84
2022/08/01 11:40:29;;;;;;;2.20;1.13;;;;;;;31.83;37.62;101058.59;4886635;29;20108;-85
2022/08/01 11:43:18;;;;;;;2.20;1.17;;;;;;;30.63;38.31;101058.56;4881356;29;20052;-86
2022/08/01 11:45:54;;;;;;;4.65;1.20;;;;;;;29.14;40.99;101075.47;4891773;29;20051;-85